Time;durP1;ratioP1;P1;durP2;ratioP2;P2;SDS_P1;SDS_P2;PMS_P1;PMS_P2;Temp;Humidity;BMP_temperature;BMP_pressure;BME280_temperature;BME280_humidity;BME280_pressure;Samples;Min_cycle;Max_cycle;Signal;HPM_P1;HPM_P2
2022/01/05 13:33:42;;;;;;;;;4.00;1.75;;;;;13.98;58.34;101940.00;5078429;27;45536;-86
2022/01/05 13:36:08;;;;;;;;;2.00;2.00;;;;;14.19;57.32;101936.94;5061832;28;45974;-86
2022/01/05 13:38:33;;;;;;;;;2.75;2.00;;;;;14.20;56.89;101906.59;5058340;28;45514;-87
2022/01/05 13:40:59;;;;;;;;;3.50;1.00;;;;;14.38;56.86;101898.38;5042422;27;46861;-87
2022/01/05 13:43:27;;;;;;;;;3.00;1.75;;;;;14.71;57.84;101934.53;5045773;28;47222;-86
2022/01/05 13:45:53;;;;;;;;;3.20;2.40;;;;;14.69;57.13;101891.00;5048991;28;45838;-84
2022/01/05 13:48:18;;;;;;;;;3.25;1.25;;;;;15.01;56.88;101915.72;5073977;27;45633;-84
2022/01/05 13:50:51;;;;;;;;;2.25;1.00;;;;;15.11;57.31;101905.25;5065804;28;45500;-85
2022/01/05 13:53:24;;;;;;;;;1.25;1.00;;;;;15.11;56.71;101891.91;5061556;27;47180;-85
2022/01/05 13:55:51;;;;;;;;;2.00;1.00;;;;;15.39;55.59;101911.38;5059369;28;45639;-84
2022/01/05 13:58:21;;;;;;;;;1.00;0.20;;;;;15.51;55.16;101912.34;5089657;27;45631;-85
2022/01/05 14:00:51;;;;;;;;;4.50;1.00;;;;;15.61;55.17;101913.41;5075995;27;45643;-85
2022/01/05 14:03:24;;;;;;;;;1.00;1.00;;;;;15.58;54.76;101889.56;5065665;27;46305;-85
2022/01/05 14:05:50;;;;;;;;;0.00;0.00;;;;;15.55;53.89;101873.72;5065494;28;45312;-85
2022/01/05 14:08:16;;;;;;;;;0.75;0.75;;;;;15.88;53.11;101900.00;5057244;28;45669;-85
2022/01/05 14:10:41;;;;;;;;;2.00;0.25;;;;;15.94;53.69;101904.94;5066263;28;45516;-85
2022/01/05 14:13:07;;;;;;;;;1.00;1.00;;;;;15.98;52.97;101897.53;5081915;27;48166;-85
2022/01/05 14:15:33;;;;;;;;;0.75;0.75;;;;;16.14;53.69;101910.69;5068575;27;45479;-85
2022/01/05 14:18:04;;;;;;;;;1.00;1.00;;;;;16.20;52.72;101904.91;5076317;27;45737;-85
2022/01/05 14:20:30;;;;;;;;;1.60;1.60;;;;;16.25;51.63;101915.25;5064191;28;45527;-85
2022/01/05 14:22:58;;;;;;;;;0.80;0.80;;;;;16.29;52.05;101902.50;5058563;28;45572;-88
2022/01/05 14:25:40;;;;;;;;;1.00;0.80;;;;;16.14;52.39;101859.81;5044942;28;45788;-85
2022/01/05 14:28:13;;;;;;;;;2.00;0.80;;;;;16.44;51.79;101901.38;5078895;27;45331;-85
2022/01/05 14:30:47;;;;;;;;;1.00;1.00;;;;;16.48;51.99;101905.53;5066933;28;45533;-85
2022/01/05 14:33:12;;;;;;;;;2.00;0.80;;;;;16.40;51.15;101885.66;5068963;28;46650;-86
2022/01/05 14:35:38;;;;;;;;;1.50;1.50;;;;;16.60;51.52;101905.59;5051850;28;45567;-86
2022/01/05 14:38:04;;;;;;;;;0.00;0.00;;;;;16.57;51.33;101879.03;5060777;28;45629;-85
2022/01/05 14:40:31;;;;;;;;;0.00;0.00;;;;;16.55;51.68;101881.00;5033900;28;45396;-85
2022/01/05 14:42:58;;;;;;;;;0.60;0.60;;;;;16.61;51.45;101891.22;5079914;27;48140;-86
2022/01/05 14:45:24;;;;;;;;;1.40;0.60;;;;;16.73;51.53;101910.03;5041098;28;45465;-85
2022/01/05 14:47:49;;;;;;;;;1.50;0.25;;;;;16.68;51.60;101892.47;5024705;28;45312;-85
2022/01/05 14:50:16;;;;;;;;;1.50;1.50;;;;;16.68;51.05;101887.13;5050911;28;45557;-85
2022/01/05 14:52:43;;;;;;;;;2.00;1.40;;;;;16.64;51.19;101874.91;5048049;28;46156;-85
2022/01/05 14:55:09;;;;;;;;;0.80;0.80;;;;;16.89;50.82;101924.00;5036765;28;45452;-85
2022/01/05 14:57:34;;;;;;;;;0.25;0.25;;;;;16.62;50.84;101876.88;5033928;28;45557;-85
2022/01/05 15:00:00;;;;;;;;;2.00;1.50;;;;;16.80;50.48;101900.56;5052865;28;45414;-86
2022/01/05 15:02:25;;;;;;;;;0.75;0.75;;;;;16.68;50.38;101876.41;5055356;28;48377;-85
2022/01/05 15:04:51;;;;;;;;;2.75;0.75;;;;;16.77;50.62;101884.72;5043715;28;45702;-86
2022/01/05 15:07:16;;;;;;;;;0.75;0.75;;;;;16.86;51.15;101905.47;5042112;28;46903;-85
2022/01/05 15:09:44;;;;;;;;;1.50;0.00;;;;;16.93;50.76;101906.69;5037704;28;45647;-86
2022/01/05 15:12:10;;;;;;;;;0.80;0.80;;;;;17.00;50.18;101917.81;5029865;28;47737;-86
2022/01/05 15:14:36;;;;;;;;;1.20;0.00;;;;;16.98;49.85;101908.19;5041682;28;45613;-86
2022/01/05 15:17:02;;;;;;;;;2.00;1.25;;;;;16.98;50.26;101910.88;5048566;28;45704;-86
2022/01/05 15:19:27;;;;;;;;;0.75;0.75;;;;;16.93;50.39;101901.34;5039310;28;45693;-85
2022/01/05 15:21:53;;;;;;;;;1.00;0.50;;;;;17.06;50.63;101921.00;5061359;28;52601;-85
2022/01/05 15:24:18;;;;;;;;;1.50;1.50;;;;;16.83;50.23;101884.25;5044520;28;45637;-85
2022/01/05 15:26:43;;;;;;;;;2.00;0.75;;;;;17.06;50.31;101927.22;5036571;28;45522;-85
2022/01/05 15:29:09;;;;;;;;;2.00;0.75;;;;;17.12;49.58;101931.25;5019163;28;45522;-85
2022/01/05 15:31:34;;;;;;;;;0.75;0.75;;;;;17.03;49.40;101914.06;5037352;28;46870;-85
2022/01/05 15:34:01;;;;;;;;;1.25;1.25;;;;;17.09;49.32;101927.00;5038513;28;45533;-85
2022/01/05 15:36:28;;;;;;;;;2.20;0.80;;;;;17.01;49.42;101913.31;5039208;28;46949;-86
2022/01/05 15:38:53;;;;;;;;;2.00;2.00;;;;;17.04;49.23;101913.06;5032735;28;45819;-92
2022/01/05 15:41:19;;;;;;;;;2.75;1.00;;;;;16.84;49.87;101893.16;5016542;28;47236;-90
2022/01/05 15:43:44;;;;;;;;;1.50;1.50;;;;;17.15;49.48;101939.91;5025659;28;45621;-90
2022/01/05 15:46:10;;;;;;;;;2.00;1.00;;;;;17.10;49.81;101934.03;5049260;28;45868;-92
2022/01/05 15:48:36;;;;;;;;;2.60;1.20;;;;;17.02;49.37;101926.59;5054582;28;45394;-94
2022/01/05 15:51:02;;;;;;;;;2.00;1.75;;;;;17.03;48.75;101927.47;5038365;28;48071;-94
2022/01/05 15:53:27;;;;;;;;;2.25;1.50;;;;;17.10;48.79;101944.78;5038678;28;45429;-92
2022/01/05 15:56:10;;;;;;;;;3.00;1.50;;;;;17.12;49.05;101940.16;5014349;28;45381;-93
2022/01/05 16:03:46;;;;;;;;;2.50;1.25;;;;;17.07;49.29;101947.69;5035460;28;45630;-91
2022/01/05 16:06:12;;;;;;;;;3.60;2.80;;;;;17.07;48.49;101944.16;5051290;28;45416;-94
2022/01/05 16:08:37;;;;;;;;;2.50;2.00;;;;;17.13;49.65;101960.63;5039266;28;45503;-92
2022/01/05 16:11:03;;;;;;;;;3.25;3.00;;;;;16.93;49.52;101928.16;5053416;28;47871;-89
2022/01/05 16:13:28;;;;;;;;;2.00;1.25;;;;;16.90;49.54;101916.78;5030317;28;45588;-90
2022/01/05 16:15:54;;;;;;;;;3.00;1.50;;;;;16.88;49.58;101918.75;5045341;28;45539;-90
2022/01/05 16:18:19;;;;;;;;;3.00;1.00;;;;;17.09;49.44;101948.44;5037016;28;45451;-93
2022/01/05 16:20:45;;;;;;;;;1.00;1.00;;;;;17.17;49.63;101960.41;5050619;28;48029;-94
2022/01/05 16:23:10;;;;;;;;;2.25;2.25;;;;;17.19;49.63;101970.06;5040634;28;45660;-95
2022/01/05 16:25:37;;;;;;;;;2.25;1.00;;;;;17.20;49.32;101982.50;5023351;28;45443;-96
2022/01/05 16:28:03;;;;;;;;;4.00;2.40;;;;;17.13;49.06;101970.50;5039095;28;45212;-90
2022/01/05 16:30:29;;;;;;;;;1.60;1.60;;;;;17.10;49.16;101962.69;5053864;28;46534;-90
2022/01/05 16:32:54;;;;;;;;;3.75;0.75;;;;;17.00;49.09;101949.13;5037046;28;45721;-89
2022/01/05 16:35:20;;;;;;;;;3.50;1.00;;;;;17.00;49.04;101954.50;5041213;28;45458;-89
2022/01/05 16:37:45;;;;;;;;;2.50;0.75;;;;;17.12;49.21;101969.66;5029918;28;45554;-90
2022/01/05 16:40:11;;;;;;;;;2.00;2.00;;;;;17.27;49.19;101998.97;5035741;28;48073;-90
2022/01/05 16:42:37;;;;;;;;;1.50;1.00;;;;;17.27;49.05;102001.66;5032657;28;45393;-91
2022/01/05 16:45:03;;;;;;;;;2.80;1.80;;;;;17.04;48.79;101972.03;5032781;28;45353;-90
2022/01/05 16:47:29;;;;;;;;;2.60;2.60;;;;;17.00;48.50;101959.84;5023847;28;45464;-86
2022/01/05 16:49:54;;;;;;;;;3.25;3.25;;;;;17.24;48.03;102000.06;5025569;28;47997;-86
2022/01/05 16:52:22;;;;;;;;;2.50;2.50;;;;;17.27;48.04;102008.88;5050606;28;45679;-86
2022/01/05 16:54:50;;;;;;;;;2.80;2.20;;;;;17.17;47.68;101995.25;5047810;28;45622;-88
2022/01/05 17:02:25;;;;;;;;;2.60;2.60;;;;;17.26;47.56;102021.41;5054133;28;45535;-91
2022/01/05 17:04:50;;;;;;;;;3.25;3.25;;;;;17.18;47.99;102010.41;5019191;28;45835;-88
2022/01/05 17:07:16;;;;;;;;;4.50;3.75;;;;;17.14;47.96;102015.13;5053537;28;45501;-88
2022/01/05 17:09:42;;;;;;;;;3.00;2.00;;;;;17.16;48.02;102023.91;5046273;28;47383;-87
2022/01/05 17:12:12;;;;;;;;;3.50;3.50;;;;;17.12;47.75;102012.56;5044182;28;45546;-88
2022/01/05 17:14:38;;;;;;;;;4.20;2.80;;;;;17.06;47.68;102004.97;5061806;27;45406;-88
2022/01/05 17:17:04;;;;;;;;;3.00;3.00;;;;;16.97;47.79;101992.25;5033688;28;45574;-87
2022/01/05 17:19:30;;;;;;;;;2.40;2.00;;;;;17.07;47.92;102011.19;5034682;28;46705;-87
2022/01/05 17:21:56;;;;;;;;;6.20;2.80;;;;;17.00;47.68;102003.63;5032589;28;45597;-88
